Time;durP1;ratioP1;P1;durP2;ratioP2;P2;SDS_P1;SDS_P2;PMS_P1;PMS_P2;Temp;Humidity;BMP_temperature;BMP_pressure;BME280_temperature;BME280_humidity;BME280_pressure;Samples;Min_cycle;Max_cycle;Signal;HPM_P1;HPM_P2
2022/08/17 00:01:42;;;;;;;14.20;11.32;;;;;;;23.86;56.72;100178.59;5018971;28;20049;-88
2022/08/17 00:04:07;;;;;;;14.75;11.30;;;;;;;23.88;56.85;100181.06;5034308;28;20057;-88
2022/08/17 00:06:34;;;;;;;18.95;13.00;;;;;;;23.94;57.09;100193.75;5013233;28;20130;-86
2022/08/17 00:09:00;;;;;;;18.38;14.00;;;;;;;23.88;56.93;100186.56;5016583;28;20030;-86
2022/08/17 00:11:37;;;;;;;21.20;16.23;;;;;;;23.85;57.11;100184.34;4978460;28;20120;-89
2022/08/17 00:14:05;;;;;;;22.85;17.88;;;;;;;23.72;57.50;100178.16;4997101;28;20048;-87
2022/08/17 00:16:34;;;;;;;25.40;18.88;;;;;;;23.67;57.08;100164.41;5029066;28;20059;-88
2022/08/17 00:19:03;;;;;;;30.23;20.48;;;;;;;23.76;56.87;100171.09;5011436;28;20104;-88
2022/08/17 00:21:30;;;;;;;31.85;23.33;;;;;;;23.76;56.57;100162.88;5011921;28;20056;-86
2022/08/17 00:23:58;;;;;;;32.05;22.77;;;;;;;23.82;55.93;100171.16;5001375;28;20041;-87
2022/08/17 00:26:25;;;;;;;33.85;23.48;;;;;;;23.79;55.94;100156.84;5032493;28;20414;-85
2022/08/17 00:28:51;;;;;;;31.92;23.52;;;;;;;23.83;55.84;100167.31;5029773;28;20540;-88
2022/08/17 00:31:16;;;;;;;33.53;22.90;;;;;;;23.87;55.57;100158.28;5006915;28;20037;-87
2022/08/17 00:33:44;;;;;;;31.20;23.20;;;;;;;23.79;56.13;100162.34;5021507;28;20505;-86
2022/08/17 00:36:10;;;;;;;34.22;23.55;;;;;;;23.87;55.92;100161.03;5013402;28;20025;-86
2022/08/17 00:38:36;;;;;;;35.42;25.90;;;;;;;23.71;55.71;100135.31;5013064;28;20072;-89
2022/08/17 00:41:08;;;;;;;40.42;29.25;;;;;;;23.82;55.84;100147.28;5011928;28;20037;-87
2022/08/17 00:43:57;;;;;;;40.40;30.13;;;;;;;23.82;56.17;100146.44;4991598;28;20037;-86
2022/08/17 00:46:34;;;;;;;53.47;34.28;;;;;;;23.71;56.21;100137.25;5009921;28;20095;-90
2022/08/17 00:49:00;;;;;;;56.22;36.38;;;;;;;23.85;56.33;100162.38;5014828;28;20398;-86
2022/08/17 00:51:53;;;;;;;58.28;38.47;;;;;;;23.82;57.02;100165.66;4994396;28;20057;-86
2022/08/17 00:54:19;;;;;;;58.35;39.50;;;;;;;23.77;57.03;100160.94;5027691;28;20041;-85
2022/08/17 00:56:52;;;;;;;60.80;38.30;;;;;;;23.87;56.84;100162.94;5030539;28;20026;-85
2022/08/17 00:59:20;;;;;;;55.83;35.90;;;;;;;23.71;57.59;100162.78;5011437;28;20049;-85
2022/08/17 01:01:49;;;;;;;49.05;32.17;;;;;;;23.71;57.65;100154.53;4999057;28;20101;-89
2022/08/17 01:04:15;;;;;;;45.45;31.05;;;;;;;23.75;57.19;100166.69;5033554;28;20493;-87
2022/08/17 01:06:41;;;;;;;46.25;29.83;;;;;;;23.58;57.65;100164.03;5018193;28;20056;-85
2022/08/17 01:09:09;;;;;;;46.25;29.45;;;;;;;23.62;57.60;100169.00;5035099;28;20448;-86
2022/08/17 01:11:39;;;;;;;45.70;31.13;;;;;;;23.46;57.91;100151.53;5019240;28;20025;-89
2022/08/17 01:14:05;;;;;;;47.00;31.05;;;;;;;23.46;58.32;100166.13;5019479;28;20041;-85
2022/08/17 01:16:31;;;;;;;48.22;32.13;;;;;;;23.32;58.63;100157.47;5053432;28;20028;-85
2022/08/17 01:19:34;;;;;;;51.53;33.60;;;;;;;23.31;58.82;100165.94;5052321;28;20421;-85
2022/08/17 01:22:09;;;;;;;62.17;37.43;;;;;;;23.17;59.33;100160.00;5049766;28;20041;-85
2022/08/17 01:24:39;;;;;;;62.87;38.70;;;;;;;23.13;59.18;100156.13;5053423;28;20050;-85
2022/08/17 01:27:05;;;;;;;72.65;45.80;;;;;;;23.14;59.29;100161.34;5041159;28;20283;-85
2022/08/17 01:29:31;;;;;;;83.47;50.38;;;;;;;23.10;59.20;100151.16;5040123;28;20460;-86
2022/08/17 01:32:00;;;;;;;75.97;48.75;;;;;;;23.03;59.09;100145.03;5017276;28;20063;-86
2022/08/17 01:34:25;;;;;;;75.28;46.75;;;;;;;23.14;59.07;100155.88;5038853;28;20031;-88
2022/08/17 01:36:51;;;;;;;77.68;47.08;;;;;;;23.18;59.13;100153.47;5016062;28;20060;-86
2022/08/17 01:39:30;;;;;;;77.82;45.75;;;;;;;23.11;59.09;100155.56;5032242;28;20025;-87
2022/08/17 01:42:34;;;;;;;81.13;48.33;;;;;;;23.03;59.92;100151.34;5045898;28;20020;-87
2022/08/17 01:45:04;;;;;;;84.25;51.67;;;;;;;23.06;59.54;100147.25;4961853;28;20031;-87
2022/08/17 01:47:30;;;;;;;88.45;53.95;;;;;;;23.02;59.86;100146.16;4939694;28;20047;-86
2022/08/17 01:49:56;;;;;;;90.65;53.13;;;;;;;23.02;60.10;100151.63;4954734;28;20041;-87
2022/08/17 01:52:22;;;;;;;79.72;50.33;;;;;;;22.94;60.28;100145.47;4974930;28;20049;-86
2022/08/17 01:54:50;;;;;;;86.72;49.35;;;;;;;22.99;59.75;100152.13;5034426;28;20041;-85
2022/08/17 01:57:17;;;;;;;89.32;47.70;;;;;;;22.90;60.13;100147.06;5012917;28;20411;-85
2022/08/17 01:59:43;;;;;;;78.45;46.03;;;;;;;22.97;59.96;100150.44;5018693;28;20040;-86
2022/08/17 02:02:12;;;;;;;70.03;44.65;;;;;;;23.00;59.71;100149.13;5016736;28;20033;-87
2022/08/17 02:04:37;;;;;;;69.05;43.03;;;;;;;22.87;59.89;100144.00;5017067;28;20045;-86
2022/08/17 02:07:03;;;;;;;72.57;42.28;;;;;;;22.94;59.66;100140.00;5040260;28;20076;-85
2022/08/17 02:09:31;;;;;;;61.33;38.33;;;;;;;22.91;59.50;100145.97;5025782;28;20096;-86
2022/08/17 02:11:58;;;;;;;60.20;36.95;;;;;;;22.89;59.30;100141.81;4993069;28;20056;-87
2022/08/17 02:14:24;;;;;;;54.42;34.92;;;;;;;22.82;58.90;100127.50;5024239;28;20119;-86
2022/08/17 02:16:50;;;;;;;56.63;33.67;;;;;;;22.82;59.38;100138.44;4995283;28;20120;-86
2022/08/17 02:19:16;;;;;;;57.60;33.97;;;;;;;22.70;59.47;100136.66;5027448;28;20044;-86
2022/08/17 02:21:47;;;;;;;50.78;33.58;;;;;;;22.80;59.29;100155.13;4998180;28;20033;-86
2022/08/17 02:24:20;;;;;;;44.95;31.50;;;;;;;22.72;59.48;100141.88;5013809;28;20092;-85
2022/08/17 02:26:49;;;;;;;51.92;33.45;;;;;;;22.79;59.41;100150.75;5023443;28;20034;-87
2022/08/17 02:29:15;;;;;;;52.58;33.88;;;;;;;22.81;58.99;100156.00;5013414;28;20637;-85
2022/08/17 02:31:42;;;;;;;49.80;31.90;;;;;;;22.75;59.18;100152.34;5011401;28;20065;-86
2022/08/17 02:34:08;;;;;;;50.75;30.65;;;;;;;22.74;59.28;100150.69;5007704;28;20029;-86
2022/08/17 02:36:36;;;;;;;48.83;31.20;;;;;;;22.73;59.73;100154.50;5013155;28;20525;-86
2022/08/17 02:39:07;;;;;;;44.20;30.38;;;;;;;22.73;59.59;100152.59;5018098;28;20057;-85
2022/08/17 02:41:32;;;;;;;41.88;29.00;;;;;;;22.61;59.31;100142.81;5028299;28;20514;-86
2022/08/17 02:44:01;;;;;;;45.33;27.80;;;;;;;22.59;59.36;100142.25;5005170;28;20567;-87
2022/08/17 02:46:29;;;;;;;43.20;28.48;;;;;;;22.60;59.30;100160.38;5011409;28;20405;-86
2022/08/17 02:48:55;;;;;;;44.58;27.20;;;;;;;22.50;59.40;100142.69;5010057;28;20071;-87
2022/08/17 02:51:21;;;;;;;38.70;26.52;;;;;;;22.58;59.32;100168.00;4980293;28;20505;-86
2022/08/17 02:53:47;;;;;;;42.25;27.10;;;;;;;22.53;59.68;100161.34;5012024;28;20032;-86
2022/08/17 02:56:13;;;;;;;45.72;26.90;;;;;;;22.52;59.79;100159.72;5008110;28;20033;-87
2022/08/17 02:58:38;;;;;;;38.53;27.42;;;;;;;22.41;60.15;100152.44;5007579;28;20041;-86
2022/08/17 03:01:06;;;;;;;40.22;26.33;;;;;;;22.49;59.82;100154.72;5014274;28;20038;-86
2022/08/17 03:03:34;;;;;;;41.75;25.40;;;;;;;22.47;59.77;100161.53;5010459;28;20042;-87
2022/08/17 03:06:00;;;;;;;39.65;24.55;;;;;;;22.38;60.06;100161.13;5015343;28;20105;-86
2022/08/17 03:08:26;;;;;;;35.13;24.65;;;;;;;22.34;60.24;100168.22;4995393;28;20053;-87
2022/08/17 03:10:51;;;;;;;42.20;24.50;;;;;;;22.27;60.07;100156.59;5004324;28;20057;-84
2022/08/17 03:13:26;;;;;;;37.20;24.35;;;;;;;22.32;59.76;100153.94;4967214;28;20029;-87
2022/08/17 03:15:56;;;;;;;30.57;23.03;;;;;;;22.32;59.40;100157.50;5033087;28;20037;-86
2022/08/17 03:18:22;;;;;;;31.92;22.88;;;;;;;22.36;59.23;100152.34;5001336;28;20476;-86
2022/08/17 03:20:51;;;;;;;38.90;22.73;;;;;;;22.47;59.18;100167.00;5032776;28;20056;-85
2022/08/17 03:23:17;;;;;;;32.50;22.77;;;;;;;22.45;58.72;100163.69;5010256;28;20060;-85
2022/08/17 03:25:45;;;;;;;31.88;22.27;;;;;;;22.43;58.88;100144.78;5015450;28;20103;-86
2022/08/17 03:28:11;;;;;;;29.00;21.52;;;;;;;22.47;58.79;100158.78;5011902;28;20040;-85
2022/08/17 03:30:37;;;;;;;26.40;20.55;;;;;;;22.51;58.51;100163.53;5031561;28;20038;-85
2022/08/17 03:33:04;;;;;;;30.13;19.27;;;;;;;22.53;58.16;100157.78;5003886;28;20038;-85
2022/08/17 03:35:39;;;;;;;26.15;18.95;;;;;;;22.57;57.84;100166.31;5011571;28;20168;-86
2022/08/17 03:38:09;;;;;;;29.63;20.55;;;;;;;22.65;58.33;100169.47;5024232;28;20100;-86
2022/08/17 03:40:36;;;;;;;30.55;19.88;;;;;;;22.75;58.39;100175.06;5036436;28;20037;-85
2022/08/17 03:43:08;;;;;;;32.80;20.77;;;;;;;22.61;58.74;100156.53;5022574;28;20092;-86
2022/08/17 03:56:42;;;;;;;27.00;19.80;;;;;;;22.59;59.76;100192.38;4994415;28;20620;-85
2022/08/17 03:59:15;;;;;;;33.58;19.02;;;;;;;22.65;59.66;100202.34;5006159;28;20067;-85
2022/08/17 04:01:45;;;;;;;30.65;18.73;;;;;;;22.83;59.15;100197.63;5002812;28;20041;-85
2022/08/17 04:04:10;;;;;;;26.70;18.67;;;;;;;22.73;58.52;100193.72;5018376;28;20045;-86
2022/08/17 04:06:39;;;;;;;30.02;18.52;;;;;;;22.89;58.31;100197.47;5011950;28;20091;-86
2022/08/17 04:09:06;;;;;;;25.23;18.42;;;;;;;22.93;57.68;100206.84;5016568;28;20501;-86
2022/08/17 04:11:35;;;;;;;29.90;19.25;;;;;;;22.95;57.76;100201.94;5009750;28;20041;-86
2022/08/17 04:14:03;;;;;;;28.92;17.90;;;;;;;23.08;57.20;100198.00;5017280;28;20056;-87
2022/08/17 04:16:29;;;;;;;25.13;17.23;;;;;;;23.15;56.45;100198.66;5013828;28;20470;-86
2022/08/17 04:18:56;;;;;;;23.45;17.10;;;;;;;23.28;55.79;100215.81;5002376;28;20466;-87
2022/08/17 04:21:22;;;;;;;25.48;15.88;;;;;;;23.43;54.92;100207.75;4993417;28;20143;-91
2022/08/17 04:23:53;;;;;;;22.08;15.27;;;;;;;23.33;54.95;100211.22;5032276;28;20501;-87
2022/08/17 04:26:21;;;;;;;21.00;15.00;;;;;;;23.27;54.95;100190.31;5012868;28;20393;-85
2022/08/17 04:28:46;;;;;;;30.67;15.02;;;;;;;23.38;54.29;100205.78;5014807;28;20037;-88
2022/08/17 04:31:14;;;;;;;24.73;14.18;;;;;;;23.52;54.65;100221.84;5014385;28;20120;-89
2022/08/17 04:33:41;;;;;;;22.77;14.57;;;;;;;23.57;53.85;100210.91;4989425;28;20033;-91
2022/08/17 04:36:07;;;;;;;23.50;14.25;;;;;;;23.59;53.35;100200.53;4998948;28;20065;-87
2022/08/17 04:38:34;;;;;;;19.85;13.82;;;;;;;23.73;53.39;100217.41;5019682;28;20179;-90
2022/08/17 04:43:45;;;;;;;23.60;13.88;;;;;;;23.85;52.76;100220.84;5011557;28;20036;-86
2022/08/17 04:46:15;;;;;;;21.23;13.70;;;;;;;23.89;52.52;100215.69;5000166;28;20401;-89
2022/08/17 04:48:51;;;;;;;20.42;13.55;;;;;;;24.03;52.30;100219.66;4991975;28;20125;-88
2022/08/17 04:51:30;;;;;;;19.67;13.73;;;;;;;24.02;51.69;100193.28;5016624;28;20029;-86
2022/08/17 04:53:59;;;;;;;23.33;14.13;;;;;;;24.27;51.62;100222.03;5015723;28;20037;-85
2022/08/17 04:56:27;;;;;;;23.00;13.68;;;;;;;24.35;51.59;100218.81;5001056;28;20592;-85
2022/08/17 04:58:55;;;;;;;21.17;13.80;;;;;;;24.43;51.34;100216.41;4999492;28;20069;-84
2022/08/17 05:01:23;;;;;;;24.23;13.63;;;;;;;24.56;50.99;100226.16;5014007;28;20037;-86
2022/08/17 05:03:48;;;;;;;21.35;13.85;;;;;;;24.69;50.70;100221.28;5012660;28;20026;-85
2022/08/17 05:06:14;;;;;;;24.08;13.70;;;;;;;24.80;50.01;100221.06;5007017;28;20457;-85
2022/08/17 05:08:41;;;;;;;17.48;13.18;;;;;;;24.92;49.81;100212.63;4995231;28;20490;-86
2022/08/17 05:11:13;;;;;;;26.02;12.93;;;;;;;25.43;49.16;100237.63;4991950;28;20029;-85
2022/08/17 05:13:40;;;;;;;17.85;13.07;;;;;;;25.69;48.16;100233.03;5031388;28;20040;-87
2022/08/17 05:16:07;;;;;;;22.80;12.73;;;;;;;25.84;47.51;100206.59;5013965;28;20064;-86
2022/08/17 05:18:33;;;;;;;20.58;13.32;;;;;;;26.30;46.39;100229.53;5002332;28;20033;-88
2022/08/17 05:21:00;;;;;;;24.08;13.02;;;;;;;26.58;46.65;100235.59;5001430;28;20159;-84
2022/08/17 05:23:26;;;;;;;27.58;13.20;;;;;;;26.67;45.84;100236.69;4999145;28;20112;-87
2022/08/17 05:25:55;;;;;;;24.40;13.45;;;;;;;26.87;45.75;100243.25;5014940;28;20109;-85
2022/08/17 05:28:21;;;;;;;21.85;13.00;;;;;;;27.08;45.17;100244.84;4996715;28;20048;-89
2022/08/17 05:30:47;;;;;;;30.83;14.15;;;;;;;27.00;45.13;100245.44;4999949;28;20099;-90
2022/08/17 05:33:28;;;;;;;23.33;13.55;;;;;;;27.14;44.92;100251.19;5015995;28;20132;-90
2022/08/17 05:35:56;;;;;;;25.77;13.15;;;;;;;27.07;45.06;100226.66;5011486;28;20474;-88
2022/08/17 05:38:27;;;;;;;28.42;12.82;;;;;;;27.07;45.20;100240.44;4995645;28;20034;-87
2022/08/17 05:40:56;;;;;;;20.88;12.95;;;;;;;27.23;45.23;100254.22;4991179;28;20041;-88
2022/08/17 05:43:27;;;;;;;22.85;13.05;;;;;;;27.41;45.13;100245.31;4980291;28;20037;-88
2022/08/17 05:46:01;;;;;;;23.80;13.43;;;;;;;27.63;44.63;100252.38;5012075;28;20057;-88
2022/08/17 05:48:27;;;;;;;22.58;13.07;;;;;;;27.53;44.46;100244.97;4990794;28;20409;-86
2022/08/17 05:51:02;;;;;;;22.40;12.88;;;;;;;27.54;44.37;100250.22;5005818;28;20117;-90
2022/08/17 05:53:48;;;;;;;20.67;11.95;;;;;;;27.50;44.54;100249.13;5016711;28;20059;-91
2022/08/17 05:56:35;;;;;;;24.60;12.85;;;;;;;27.35;45.42;100254.72;5025739;28;20032;-86
2022/08/17 05:59:08;;;;;;;94.03;16.35;;;;;;;27.28;44.89;100249.50;4992583;28;20026;-87
2022/08/17 06:01:47;;;;;;;40.35;13.70;;;;;;;27.29;44.86;100242.88;4987445;28;20359;-87
2022/08/17 06:04:25;;;;;;;39.50;13.00;;;;;;;27.21;44.87;100246.22;5016418;28;20136;-87
2022/08/17 06:07:03;;;;;;;53.78;14.07;;;;;;;27.41;44.29;100261.88;4994099;28;20482;-85
2022/08/17 06:10:07;;;;;;;111.38;18.10;;;;;;;27.29;44.29;100247.56;5012229;28;20034;-85
2022/08/17 06:12:50;;;;;;;177.93;22.70;;;;;;;27.36;44.40;100248.91;5004307;28;20710;-87
2022/08/17 06:15:33;;;;;;;82.38;16.20;;;;;;;27.48;43.96;100256.03;5014981;28;20025;-87
2022/08/17 06:18:04;;;;;;;163.57;18.80;;;;;;;27.63;43.61;100244.94;5031622;28;20033;-87
2022/08/17 06:20:37;;;;;;;159.23;19.00;;;;;;;27.65;42.54;100244.63;5012864;28;20072;-87
2022/08/17 06:23:08;;;;;;;47.00;11.90;;;;;;;27.83;42.42;100251.44;4997427;28;20478;-88
2022/08/17 06:25:37;;;;;;;93.20;15.40;;;;;;;27.79;42.85;100235.44;5013175;28;20556;-86
2022/08/17 06:28:13;;;;;;;68.85;12.45;;;;;;;27.93;42.34;100243.94;5030404;28;20051;-87
2022/08/17 06:31:25;;;;;;;113.80;15.40;;;;;;;28.14;42.24;100247.38;4991358;28;20496;-86
2022/08/17 06:33:51;;;;;;;30.17;9.57;;;;;;;28.31;41.48;100240.63;5020754;28;20038;-86
2022/08/17 06:36:35;;;;;;;18.85;9.15;;;;;;;28.51;41.04;100237.69;4993400;28;20425;-85
2022/08/17 06:39:22;;;;;;;23.05;9.18;;;;;;;28.53;41.48;100227.16;5036664;28;20104;-86
2022/08/17 06:42:19;;;;;;;24.83;9.88;;;;;;;28.57;40.98;100224.66;5044605;28;20046;-89
2022/08/17 06:45:01;;;;;;;19.30;9.25;;;;;;;28.93;40.45;100247.22;5023920;28;20042;-89
2022/08/17 06:47:56;;;;;;;26.90;9.52;;;;;;;29.41;40.14;100251.97;5008876;28;20041;-87
2022/08/17 06:50:38;;;;;;;27.08;9.90;;;;;;;30.05;38.67;100239.41;5025843;28;20042;-89
2022/08/17 06:53:31;;;;;;;39.90;10.05;;;;;;;30.66;37.94;100242.28;5035781;28;20045;-88
2022/08/17 06:56:12;;;;;;;27.05;9.85;;;;;;;31.22;37.27;100246.78;5017886;28;20053;-88
2022/08/17 06:58:39;;;;;;;15.15;8.80;;;;;;;31.65;36.54;100246.44;5012957;28;20060;-88
2022/08/17 07:01:13;;;;;;;21.13;9.50;;;;;;;31.95;35.31;100241.31;5001070;28;20056;-89
2022/08/17 07:03:56;;;;;;;;;;;;;;;32.26;34.22;100237.81;5011446;28;20117;-88
2022/08/17 07:06:38;;;;;;;25.00;10.07;;;;;;;32.41;34.22;100236.59;5015028;28;20323;-86
2022/08/17 07:09:07;;;;;;;18.92;9.63;;;;;;;32.55;34.98;100240.97;5003964;28;20104;-88
2022/08/17 07:11:50;;;;;;;30.48;12.95;;;;;;;32.86;34.46;100229.00;5041374;28;20038;-87
2022/08/17 07:14:39;;;;;;;21.98;10.50;;;;;;;32.91;33.75;100226.06;5049622;28;20041;-88
2022/08/17 07:17:17;;;;;;;18.40;9.98;;;;;;;32.82;33.75;100219.66;5020080;28;20041;-92
2022/08/17 07:19:45;;;;;;;21.90;9.60;;;;;;;32.87;33.44;100236.19;5003449;28;20486;-94
2022/08/17 07:22:23;;;;;;;27.52;10.57;;;;;;;32.90;33.52;100237.56;5024957;28;20103;-87
2022/08/17 07:24:57;;;;;;;83.03;12.77;;;;;;;32.65;33.51;100236.28;5034799;28;20029;-85
2022/08/17 07:27:26;;;;;;;20.37;9.40;;;;;;;32.56;33.56;100236.22;5017415;28;20041;-86
2022/08/17 07:29:57;;;;;;;125.93;15.38;;;;;;;32.48;33.85;100229.44;5001638;28;20287;-84
2022/08/17 07:32:47;;;;;;;31.95;11.07;;;;;;;32.68;34.00;100242.00;5027536;28;20075;-85
2022/08/17 07:35:38;;;;;;;16.92;9.88;;;;;;;32.94;33.91;100231.03;5015356;28;20088;-86
2022/08/17 07:38:20;;;;;;;54.13;12.65;;;;;;;32.75;33.66;100244.34;5020927;28;20061;-92
2022/08/17 07:41:01;;;;;;;45.60;11.57;;;;;;;32.63;34.14;100241.34;5030044;28;20088;-86
2022/08/17 07:43:28;;;;;;;36.05;11.02;;;;;;;32.53;34.07;100243.25;5015278;28;20025;-85
2022/08/17 07:48:50;;;;;;;25.15;11.00;;;;;;;32.52;35.09;100235.22;5041535;28;20421;-88
2022/08/17 07:51:30;;;;;;;24.05;9.60;;;;;;;32.59;35.16;100241.13;4985772;28;20071;-88
2022/08/17 07:54:07;;;;;;;29.58;9.98;;;;;;;32.77;34.96;100239.28;5006711;28;20064;-86
2022/08/17 07:56:55;;;;;;;21.98;10.20;;;;;;;32.91;34.68;100230.81;5006495;28;20061;-88
2022/08/17 07:59:36;;;;;;;24.48;10.52;;;;;;;32.98;34.43;100228.41;5035917;28;20095;-86
2022/08/17 08:02:29;;;;;;;13.85;9.57;;;;;;;32.89;34.82;100233.91;5018179;28;20087;-85
2022/08/17 08:05:22;;;;;;;31.55;9.77;;;;;;;32.91;34.29;100237.22;5026222;28;20061;-88
2022/08/17 08:07:53;;;;;;;16.27;9.98;;;;;;;33.23;34.39;100243.59;5010756;28;20049;-93
2022/08/17 08:10:40;;;;;;;17.02;9.07;;;;;;;33.80;33.51;100240.75;5017262;28;20409;-89
2022/08/17 08:13:17;;;;;;;13.38;8.38;;;;;;;34.09;31.72;100235.66;5016652;28;20161;-93
2022/08/17 08:15:47;;;;;;;14.98;8.60;;;;;;;34.66;32.11;100233.47;5017688;28;20060;-90
2022/08/17 08:18:34;;;;;;;15.98;9.23;;;;;;;35.07;30.29;100237.56;5014406;28;20033;-90
2022/08/17 08:21:10;;;;;;;18.05;10.27;;;;;;;35.55;30.26;100237.47;5017641;28;20144;-94
2022/08/17 08:23:47;;;;;;;11.88;6.40;;;;;;;35.64;26.35;100224.28;5035205;28;20049;-90
2022/08/17 08:26:32;;;;;;;9.77;5.85;;;;;;;35.62;25.45;100235.00;5039943;28;20034;-91
2022/08/17 08:29:02;;;;;;;;;;;;;;;35.88;24.94;100232.00;5029082;28;20072;-94
2022/08/17 08:32:06;;;;;;;8.48;5.50;;;;;;;36.00;23.94;100222.84;5032245;28;19971;-90
2022/08/17 08:34:58;;;;;;;18.42;6.13;;;;;;;36.37;25.00;100226.63;5026183;28;20056;-89
2022/08/17 08:37:54;;;;;;;16.58;5.90;;;;;;;36.99;23.43;100233.13;5029661;28;20038;-94
2022/08/17 08:41:03;;;;;;;12.02;6.05;;;;;;;37.21;23.56;100234.69;4999500;28;20029;-88
2022/08/17 08:43:35;;;;;;;15.93;5.75;;;;;;;37.27;22.97;100218.44;5015486;28;20052;-92
2022/08/17 08:46:38;;;;;;;15.10;6.00;;;;;;;38.04;22.02;100218.41;5033190;28;20092;-89
2022/08/17 08:49:59;;;;;;;7.72;5.15;;;;;;;38.69;20.48;100206.94;5016459;28;20043;-88
2022/08/17 08:52:36;;;;;;;7.70;5.68;;;;;;;39.22;20.85;100224.34;4926619;29;20039;-89
2022/08/17 08:55:13;;;;;;;8.77;5.28;;;;;;;39.59;19.85;100211.91;5008025;28;20050;-89
2022/08/17 08:58:01;;;;;;;9.30;5.70;;;;;;;39.91;20.50;100218.25;5002822;28;20056;-89
2022/08/17 09:00:28;;;;;;;16.10;7.88;;;;;;;39.13;21.89;100195.59;5022767;28;20046;-91
2022/08/17 09:03:26;;;;;;;13.35;6.43;;;;;;;39.50;21.60;100212.16;4991347;28;20061;-88
2022/08/17 09:06:11;;;;;;;10.20;6.35;;;;;;;40.41;20.93;100219.22;5009819;28;20030;-89
2022/08/17 09:09:01;;;;;;;10.43;6.07;;;;;;;41.28;20.04;100219.53;4989421;28;20111;-90
2022/08/17 09:11:39;;;;;;;9.23;5.60;;;;;;;42.01;18.59;100210.88;5025053;28;20028;-87
2022/08/17 09:14:30;;;;;;;12.27;5.53;;;;;;;41.69;18.86;100218.91;5025115;28;20033;-88
2022/08/17 09:17:45;;;;;;;8.45;5.80;;;;;;;42.53;18.34;100214.66;5019349;28;20029;-87
2022/08/17 09:20:42;;;;;;;12.20;6.20;;;;;;;42.04;18.54;100217.75;4997158;28;20037;-85
2022/08/17 09:23:43;;;;;;;9.70;6.20;;;;;;;41.18;19.46;100208.09;4971846;28;20049;-86
2022/08/17 09:26:15;;;;;;;8.70;6.60;;;;;;;40.41;20.38;100213.59;5019403;28;20052;-87
2022/08/17 09:28:42;;;;;;;10.25;6.30;;;;;;;39.86;20.47;100193.22;5028427;28;20021;-86
2022/08/17 09:31:38;;;;;;;13.00;7.65;;;;;;;39.89;21.45;100209.38;4985249;28;20051;-87
2022/08/17 09:34:07;;;;;;;13.45;7.32;;;;;;;39.67;21.16;100210.91;5012992;28;20375;-87
2022/08/17 09:36:45;;;;;;;18.30;7.82;;;;;;;39.55;22.18;100206.22;4996764;28;20098;-87
2022/08/17 09:39:33;;;;;;;12.20;7.75;;;;;;;41.13;20.14;100210.03;5028767;28;20041;-87
2022/08/17 09:42:02;;;;;;;11.15;6.95;;;;;;;42.56;18.54;100205.38;4985817;28;20548;-87
2022/08/17 09:44:58;;;;;;;9.02;6.25;;;;;;;44.39;16.83;100205.63;5003618;28;20044;-86
2022/08/17 09:47:35;;;;;;;10.45;6.30;;;;;;;45.55;15.47;100208.00;5022777;28;20034;-87
2022/08/17 09:50:20;;;;;;;7.80;5.90;;;;;;;46.84;14.49;100217.84;5027198;28;20025;-88
2022/08/17 09:52:46;;;;;;;7.32;5.63;;;;;;;48.04;12.72;100213.25;4999949;28;20053;-87
2022/08/17 09:55:12;;;;;;;8.63;6.00;;;;;;;48.71;12.86;100204.94;4988152;28;20048;-86
2022/08/17 09:58:06;;;;;;;8.23;6.00;;;;;;;48.49;12.47;100187.34;5020208;28;20522;-88
2022/08/17 10:00:34;;;;;;;8.20;5.90;;;;;;;48.64;12.37;100205.06;5002280;28;20037;-85
2022/08/17 10:03:08;;;;;;;7.93;5.75;;;;;;;48.14;12.03;100203.72;4999519;28;20164;-85
2022/08/17 10:05:51;;;;;;;7.25;5.32;;;;;;;48.85;11.31;100201.81;5014174;28;20072;-86
2022/08/17 10:08:26;;;;;;;7.60;5.07;;;;;;;48.43;11.38;100209.03;5013832;28;20046;-87
2022/08/17 10:12:14;;;;;;;8.80;5.20;;;;;;;48.30;11.42;100205.97;5015398;28;20037;-87
2022/08/17 10:14:18;;;;;;;5.53;4.93;;;;;;;48.01;11.75;100203.53;5011781;28;20045;-86
2022/08/17 10:16:48;;;;;;;7.55;4.57;;;;;;;47.21;12.02;100199.22;4980281;28;20037;-88
2022/08/17 10:19:37;;;;;;;10.30;4.90;;;;;;;47.06;12.15;100187.13;4980880;28;20180;-87
2022/08/17 10:27:53;;;;;;;6.97;5.20;;;;;;;47.33;12.20;100187.28;5007374;28;20049;-85
2022/08/17 10:30:21;;;;;;;9.45;5.18;;;;;;;48.90;10.99;100186.25;4999048;28;20030;-86
2022/08/17 10:33:00;;;;;;;11.70;4.97;;;;;;;47.41;11.49;100182.31;4995956;28;20041;-87
2022/08/17 10:35:29;;;;;;;6.63;5.10;;;;;;;47.83;11.26;100180.97;5023093;28;20033;-85
2022/08/17 10:38:13;;;;;;;10.48;5.63;;;;;;;47.52;11.47;100178.13;5024910;28;20030;-84
2022/08/17 10:41:05;;;;;;;9.15;5.35;;;;;;;48.60;10.83;100165.19;5014663;28;20034;-85
2022/08/17 10:43:33;;;;;;;7.03;5.30;;;;;;;46.98;11.85;100169.34;5016840;28;20037;-85
2022/08/17 10:46:11;;;;;;;9.20;4.95;;;;;;;45.74;12.73;100163.34;5012170;28;20025;-85
2022/08/17 10:48:37;;;;;;;7.80;5.22;;;;;;;47.96;11.00;100166.97;4995480;28;20525;-86
2022/08/17 10:51:28;;;;;;;7.13;5.05;;;;;;;46.94;11.56;100166.53;4996501;28;20404;-84
2022/08/17 10:53:56;;;;;;;7.40;4.85;;;;;;;46.28;12.17;100158.13;5019002;28;20780;-85
2022/08/17 10:56:22;;;;;;;7.75;5.00;;;;;;;45.42;12.83;100150.06;5011322;28;20068;-85
2022/08/17 10:58:49;;;;;;;12.18;5.60;;;;;;;46.01;12.39;100146.56;4999882;28;20080;-86
2022/08/17 11:01:15;;;;;;;11.85;5.97;;;;;;;45.96;12.71;100153.44;5003063;28;20474;-84
2022/08/17 11:03:53;;;;;;;9.55;6.70;;;;;;;45.63;12.44;100152.03;4981818;28;20042;-85
2022/08/17 11:06:31;;;;;;;13.98;5.38;;;;;;;45.95;12.26;100143.31;5005696;28;20026;-85
2022/08/17 11:09:20;;;;;;;5.68;4.70;;;;;;;44.00;13.86;100139.19;5026026;28;20045;-87
2022/08/17 11:12:18;;;;;;;9.13;6.40;;;;;;;43.93;13.46;100132.72;5003448;28;20408;-88
2022/08/17 11:15:02;;;;;;;6.15;4.82;;;;;;;43.76;13.67;100134.25;4982999;28;20497;-84
2022/08/17 11:17:52;;;;;;;7.40;4.78;;;;;;;43.25;14.31;100144.56;5008433;28;20033;-85
2022/08/17 11:20:40;;;;;;;7.28;4.90;;;;;;;43.45;13.96;100132.91;5019724;28;20086;-91
2022/08/17 11:23:17;;;;;;;6.72;5.55;;;;;;;42.91;16.23;100130.59;5023486;28;20026;-88
2022/08/17 11:25:56;;;;;;;8.38;4.63;;;;;;;42.16;15.43;100142.03;5043114;28;20034;-88
2022/08/17 11:28:34;;;;;;;9.13;5.68;;;;;;;41.57;18.34;100146.59;5019420;28;20029;-86
2022/08/17 11:31:24;;;;;;;7.80;6.10;;;;;;;40.74;20.73;100160.66;5000247;28;20037;-88
2022/08/17 11:33:55;;;;;;;10.95;6.35;;;;;;;39.82;22.30;100152.94;5024826;28;20076;-88
2022/08/17 11:36:47;;;;;;;9.43;6.53;;;;;;;39.19;23.43;100159.59;4989446;28;20034;-86
2022/08/17 11:39:22;;;;;;;10.57;6.90;;;;;;;38.18;25.98;100179.50;4997893;28;20045;-84
2022/08/17 11:42:10;;;;;;;;;;;;;;;37.54;27.10;100175.69;5026668;28;20135;-88
2022/08/17 11:45:22;;;;;;;9.15;6.70;;;;;;;35.33;30.58;100177.13;5016034;28;19936;-87
2022/08/17 11:53:52;;;;;;;12.77;6.97;;;;;;;33.19;34.11;100186.88;5013995;28;20041;-84
2022/08/17 11:56:34;;;;;;;8.45;6.93;;;;;;;32.99;36.07;100194.66;5030089;28;20064;-85
2022/08/17 11:59:00;;;;;;;12.73;7.28;;;;;;;33.13;36.53;100200.16;5027153;28;20041;-84
2022/08/17 12:01:28;;;;;;;8.52;7.63;;;;;;;32.78;38.45;100199.19;4995031;28;20532;-83
2022/08/17 12:04:24;;;;;;;12.82;8.60;;;;;;;32.92;38.31;100196.25;5034051;28;20037;-89
2022/08/17 12:06:59;;;;;;;8.52;7.63;;;;;;;33.04;37.87;100190.06;5033174;28;20029;-82
2022/08/17 12:09:28;;;;;;;11.75;7.55;;;;;;;32.98;38.49;100190.22;4999891;28;20034;-85
2022/08/17 12:11:58;;;;;;;12.27;7.65;;;;;;;33.08;42.48;100205.84;5001221;28;20033;-85
2022/08/17 12:14:28;;;;;;;25.92;9.20;;;;;;;32.91;44.77;100228.03;5034586;28;20120;-85
2022/08/17 12:17:05;;;;;;;31.30;10.60;;;;;;;32.29;47.00;100245.53;5008851;28;20043;-85
2022/08/17 12:19:32;;;;;;;32.15;10.52;;;;;;;31.51;48.18;100235.34;5009284;28;20037;-84